Terminal Aerodrome Forecast
Issued by NWS Detroit/Pontiac, MI

Home | Current Version | Previous Version | Text Only | Print | Product List | Glossary On
Versions: 1 2 3 4 5 6 7 8 9 10 11 12 13 14 15 16 17 18 19 20 21 22 23 24 25 26 27 28 29 30 31 32
000
FTUS43 KDTX 270837 AAA
TAFDTW
TAF AMD
KDTW 270837Z 2709/2812 VRB03KT P6SM BKN120 OVC200
     FM271200 13005KT P6SM SCT080 BKN100 OVC200
     FM271800 18007KT P6SM SCT050 BKN080
     FM272000 18007KT 6SM SHRA VCTS OVC040CB
     FM280100 14005KT P6SM SCT080 OVC120
     FM280800 VRB03KT 5SM BR SCT015=

USA.gov is the U.S. government's official web portal to all federal, state and local government web resources and services.